createdAt,value
2018-09-21T00:00:17.244Z,100086.14
2018-09-21T00:02:45.036Z,100087.27
2018-09-21T00:05:12.867Z,100079.77
2018-09-21T00:07:40.686Z,100072.90
2018-09-21T00:10:08.559Z,100069.58
2018-09-21T00:12:36.308Z,100062.38
2018-09-21T00:15:04.281Z,100066.59
2018-09-21T00:17:32.180Z,100061.55
2018-09-21T00:19:59.991Z,100055.21
2018-09-21T00:22:27.846Z,100058.63
2018-09-21T00:24:55.660Z,100053.59
2018-09-21T00:27:23.497Z,100050.28
2018-09-21T00:29:51.332Z,100040.87
2018-09-21T00:32:19.142Z,100050.80
2018-09-21T00:34:47.020Z,100046.66
2018-09-21T00:37:14.895Z,100045.95
2018-09-21T00:39:42.669Z,100037.89
2018-09-21T00:42:10.470Z,100034.83
2018-09-21T00:44:38.223Z,100036.77
2018-09-21T00:47:06.087Z,100043.77
2018-09-21T00:49:33.881Z,100034.47
2018-09-21T00:52:01.654Z,100033.36
2018-09-21T00:54:29.576Z,100028.98
2018-09-21T00:56:57.535Z,100030.98
2018-09-21T00:59:25.304Z,100034.03
2018-09-21T01:01:53.133Z,100024.70
2018-09-21T01:04:21.073Z,100024.70
2018-09-21T01:06:48.829Z,100024.43
2018-09-21T01:09:16.657Z,100026.98
2018-09-21T01:11:48.129Z,100022.25
2018-09-21T01:14:16.064Z,100015.38
2018-09-21T01:16:43.901Z,100014.30
2018-09-21T01:19:11.741Z,100014.32
2018-09-21T01:21:39.512Z,100016.26
2018-09-21T01:24:07.400Z,100013.20
2018-09-21T01:26:35.255Z,100012.19
2018-09-21T01:29:03.152Z,100011.95
2018-09-21T01:31:30.968Z,100003.68
2018-09-21T01:33:58.796Z,100009.45
2018-09-21T01:36:26.559Z,100005.88
2018-09-21T01:38:54.445Z,100006.42
2018-09-21T01:41:22.287Z,100008.05
2018-09-21T01:43:50.067Z,100004.23
2018-09-21T01:46:17.964Z,100006.70
2018-09-21T01:48:45.839Z,99996.82
2018-09-21T01:51:13.584Z,99993.23
2018-09-21T01:53:41.416Z,99992.70
2018-09-21T01:56:09.156Z,99987.67
2018-09-21T01:58:37.005Z,99992.70
2018-09-21T02:01:04.853Z,99998.78
2018-09-21T02:03:32.651Z,99992.20
2018-09-21T02:06:00.440Z,99992.23
2018-09-21T02:08:28.233Z,99985.63
2018-09-21T02:10:56.065Z,99980.11
2018-09-21T02:13:24.081Z,99971.34
2018-09-21T02:15:52.165Z,99976.85
2018-09-21T02:18:19.981Z,99978.53
2018-09-21T02:20:47.752Z,99974.08
2018-09-21T02:23:15.704Z,99977.42
2018-09-21T02:25:43.511Z,99973.03
2018-09-21T02:28:11.360Z,99970.03
2018-09-21T02:30:39.282Z,99974.17
2018-09-21T02:33:07.055Z,99968.13
2018-09-21T02:35:34.801Z,99963.14
2018-09-21T02:38:02.619Z,99954.34
2018-09-21T02:40:30.336Z,99954.67
2018-09-21T02:42:58.084Z,99950.53
2018-09-21T02:45:25.915Z,99942.82
2018-09-21T02:47:53.745Z,99944.44
2018-09-21T02:50:21.852Z,99949.67
2018-09-21T02:52:49.669Z,99955.72
2018-09-21T02:55:17.549Z,99954.41
2018-09-21T02:57:45.368Z,99948.86
2018-09-21T03:00:13.180Z,99947.53
2018-09-21T03:02:40.967Z,99947.80
2018-09-21T03:05:08.852Z,99950.85
2018-09-21T03:07:36.726Z,99951.69
2018-09-21T03:10:04.628Z,99944.26
2018-09-21T03:12:32.427Z,99935.99
2018-09-21T03:15:00.253Z,99931.89
2018-09-21T03:17:28.097Z,99926.67
2018-09-21T03:19:55.954Z,99925.58
2018-09-21T03:22:23.768Z,99911.52
2018-09-21T03:24:51.532Z,99909.08
2018-09-21T03:27:19.335Z,99910.45
2018-09-21T03:29:47.295Z,99901.64
2018-09-21T03:32:15.151Z,99900.81
2018-09-21T03:34:42.968Z,99900.81
2018-09-21T03:37:10.748Z,99898.06
2018-09-21T03:39:38.597Z,99894.20
2018-09-21T03:42:06.480Z,99900.27
2018-09-21T03:44:34.265Z,99903.59
2018-09-21T03:47:02.076Z,99909.11
2018-09-21T03:49:29.950Z,99895.33
2018-09-21T03:51:57.773Z,99890.13
2018-09-21T03:54:25.520Z,99880.23
2018-09-21T03:56:53.355Z,99873.33
2018-09-21T03:59:21.194Z,99868.95
2018-09-21T04:01:48.994Z,99869.78
2018-09-21T04:04:16.920Z,99874.72
2018-09-21T04:06:45.024Z,99873.09
2018-09-21T04:09:13.893Z,99869.75
2018-09-21T04:11:41.796Z,99869.77
2018-09-21T04:14:09.560Z,99862.34
2018-09-21T04:16:37.408Z,99854.93
2018-09-21T04:19:05.536Z,99850.80
2018-09-21T04:21:33.341Z,99848.03
2018-09-21T04:24:01.145Z,99842.84
2018-09-21T04:26:28.960Z,99841.46
2018-09-21T04:28:56.786Z,99838.16
2018-09-21T04:31:24.556Z,99829.34
2018-09-21T04:33:52.353Z,99838.69
2018-09-21T04:36:20.173Z,99839.52
2018-09-21T04:38:47.995Z,99832.93
2018-09-21T04:41:15.826Z,99834.03
2018-09-21T04:43:43.713Z,99824.95
2018-09-21T04:46:11.526Z,99827.46
2018-09-21T04:48:39.500Z,99835.14
2018-09-21T04:51:07.572Z,99829.09
2018-09-21T04:53:37.561Z,99823.03
2018-09-21T04:56:05.404Z,99818.13
2018-09-21T04:58:33.217Z,99815.09
2018-09-21T05:01:01.022Z,99811.52
2018-09-21T05:03:28.829Z,99815.36
2018-09-21T05:05:56.688Z,99815.64
2018-09-21T05:08:24.516Z,99818.37
2018-09-21T05:10:52.318Z,99819.45
2018-09-21T05:13:24.578Z,99824.16
2018-09-21T05:15:52.450Z,99812.03
2018-09-21T05:18:20.290Z,99815.63
2018-09-21T05:20:48.130Z,99813.66
2018-09-21T05:23:15.944Z,99807.91
2018-09-21T05:25:43.824Z,99813.96
2018-09-21T05:28:11.616Z,99811.19
2018-09-21T05:30:39.400Z,99801.81
2018-09-21T05:33:07.204Z,99794.69
2018-09-21T05:35:35.030Z,99793.58
2018-09-21T05:38:02.914Z,99801.53
2018-09-21T05:40:30.712Z,99805.39
2018-09-21T05:42:58.531Z,99785.86
2018-09-21T05:45:26.356Z,99791.61
2018-09-21T05:47:54.144Z,99782.52
2018-09-21T05:50:21.924Z,99782.78
2018-09-21T05:52:49.760Z,99783.30
2018-09-21T05:55:17.641Z,99785.22
2018-09-21T05:57:45.439Z,99781.90
2018-09-21T06:00:15.074Z,99780.19
2018-09-21T06:02:43.347Z,99786.77
2018-09-21T06:05:11.132Z,99780.12
2018-09-21T06:07:39.082Z,99782.03
2018-09-21T06:10:07.564Z,99780.63
2018-09-21T06:12:35.956Z,99780.05
2018-09-21T06:15:04.541Z,99779.97
2018-09-21T06:17:32.353Z,99781.84
2018-09-21T06:20:11.869Z,99772.97
2018-09-21T06:22:28.033Z,99770.15
2018-09-21T06:24:55.895Z,99766.17
2018-09-21T06:27:23.757Z,99764.65
2018-09-21T06:29:51.584Z,99770.08
2018-09-21T06:32:19.388Z,99771.27
2018-09-21T06:34:47.200Z,99775.98
2018-09-21T06:37:15.079Z,99764.20
2018-09-21T06:39:42.885Z,99761.80
2018-09-21T06:42:10.715Z,99755.00
2018-09-21T06:44:38.551Z,99761.44
2018-09-21T06:47:06.344Z,99744.84
2018-09-21T06:49:34.213Z,99729.30
2018-09-21T06:52:02.855Z,99728.36
2018-09-21T06:54:30.741Z,99733.81
2018-09-21T06:56:58.592Z,99751.34
2018-09-21T06:59:26.464Z,99743.56
2018-09-21T07:01:54.295Z,99748.81
2018-09-21T07:04:22.157Z,99745.69
2018-09-21T07:06:49.945Z,99743.91
2018-09-21T07:09:17.909Z,99754.48
2018-09-21T07:11:45.771Z,99747.35
2018-09-21T07:14:13.643Z,99748.96
2018-09-21T07:16:41.824Z,99746.17
2018-09-21T07:19:09.664Z,99748.19
2018-09-21T07:21:40.924Z,99748.66
2018-09-21T07:24:08.885Z,99754.88
2018-09-21T07:26:36.800Z,99761.09
2018-09-21T07:29:04.692Z,99766.34
2018-09-21T07:31:32.793Z,99770.89
2018-09-21T07:34:00.689Z,99779.77
2018-09-21T07:36:28.485Z,99777.84
2018-09-21T07:38:56.304Z,99771.45
2018-09-21T07:41:24.136Z,99766.15
2018-09-21T07:43:54.545Z,99765.89
2018-09-21T07:46:22.384Z,99757.57
2018-09-21T07:48:50.233Z,99745.52
2018-09-21T07:51:18.168Z,99739.23
2018-09-21T07:53:45.959Z,99751.63
2018-09-21T07:56:13.806Z,99744.15
2018-09-21T07:58:41.624Z,99744.42
2018-09-21T08:01:09.420Z,99745.74
2018-09-21T08:03:37.188Z,99736.84
2018-09-21T08:06:05.013Z,99738.95
2018-09-21T08:08:32.843Z,99739.23
2018-09-21T08:11:00.635Z,99742.67
2018-09-21T08:13:28.543Z,99745.66
2018-09-21T08:15:56.320Z,99751.69
2018-09-21T08:18:24.110Z,99730.17
2018-09-21T08:20:51.948Z,99738.52
2018-09-21T08:23:19.758Z,99733.93
2018-09-21T08:25:47.689Z,99736.05
2018-09-21T08:28:15.575Z,99749.20
2018-09-21T08:30:50.427Z,99745.95
2018-09-21T08:33:18.299Z,99756.98
2018-09-21T08:35:46.069Z,99755.81
2018-09-21T08:38:13.998Z,99754.12
2018-09-21T08:40:42.759Z,99765.16
2018-09-21T08:43:10.646Z,99755.80
2018-09-21T08:45:38.551Z,99753.16
2018-09-21T08:48:06.721Z,99748.23
2018-09-21T08:50:36.146Z,99752.75
2018-09-21T08:53:12.468Z,99750.22
2018-09-21T08:55:41.675Z,99747.20
2018-09-21T08:58:09.600Z,99739.88
2018-09-21T09:00:37.427Z,99744.02
2018-09-21T09:03:05.348Z,99739.81
2018-09-21T09:05:38.961Z,99742.80
2018-09-21T09:08:06.771Z,99747.02
2018-09-21T09:10:34.606Z,99741.66
2018-09-21T09:13:02.409Z,99745.17
2018-09-21T09:15:30.324Z,99734.71
2018-09-21T09:17:58.153Z,99735.38
2018-09-21T09:20:25.971Z,99721.98
2018-09-21T09:22:53.912Z,99730.53
2018-09-21T09:25:21.728Z,99722.02
2018-09-21T09:27:49.528Z,99732.02
2018-09-21T09:30:17.392Z,99732.27
2018-09-21T09:32:45.204Z,99725.41
2018-09-21T09:35:13.127Z,99726.94
2018-09-21T09:37:40.948Z,99733.20
2018-09-21T09:40:08.725Z,99738.10
2018-09-21T09:42:36.522Z,99744.27
2018-09-21T09:45:04.751Z,99740.19
2018-09-21T09:47:32.592Z,99741.00
2018-09-21T09:50:00.396Z,99738.80
2018-09-21T09:52:28.237Z,99739.73
2018-09-21T09:54:56.341Z,99734.49
2018-09-21T09:57:24.061Z,99739.02
2018-09-21T09:59:51.841Z,99736.13
2018-09-21T10:02:19.618Z,99735.31
2018-09-21T10:04:47.438Z,99723.67
2018-09-21T10:07:15.299Z,99716.56
2018-09-21T10:09:43.124Z,99713.77
2018-09-21T10:12:10.988Z,99696.31
2018-09-21T10:14:38.847Z,99714.38
2018-09-21T10:17:06.926Z,99698.63
2018-09-21T10:19:34.820Z,99703.41
2018-09-21T10:22:02.663Z,99691.72
2018-09-21T10:24:30.477Z,99690.08
2018-09-21T10:26:58.370Z,99689.05
2018-09-21T10:29:26.136Z,99688.90
2018-09-21T10:31:53.968Z,99684.70
2018-09-21T10:34:25.729Z,99679.31
2018-09-21T10:36:53.651Z,99666.95
2018-09-21T10:39:21.597Z,99677.23
2018-09-21T10:41:49.309Z,99669.91
2018-09-21T10:44:17.138Z,99675.64
2018-09-21T10:46:44.897Z,99669.80
2018-09-21T10:49:12.752Z,99674.24
2018-09-21T10:51:40.588Z,99670.27
2018-09-21T10:54:08.494Z,99676.32
2018-09-21T10:56:36.261Z,99662.67
2018-09-21T10:59:04.140Z,99662.09
2018-09-21T11:01:31.945Z,99668.97
2018-09-21T11:03:59.850Z,99656.05
2018-09-21T11:06:27.635Z,99652.31
2018-09-21T11:08:55.480Z,99642.05
2018-09-21T11:11:23.396Z,99641.89
2018-09-21T11:13:51.196Z,99646.44
2018-09-21T11:16:19.006Z,99633.11
2018-09-21T11:18:46.809Z,99634.59
2018-09-21T11:21:14.632Z,99623.07
2018-09-21T11:23:42.452Z,99621.67
2018-09-21T11:26:10.276Z,99622.27
2018-09-21T11:28:38.059Z,99617.70
2018-09-21T11:31:05.901Z,99624.80
2018-09-21T11:33:33.648Z,99621.31
2018-09-21T11:36:01.468Z,99609.53
2018-09-21T11:38:29.241Z,99598.00
2018-09-21T11:40:57.118Z,99619.10
2018-09-21T11:43:24.884Z,99635.06
2018-09-21T11:45:52.730Z,99648.13
2018-09-21T11:48:20.682Z,99655.02
2018-09-21T11:50:48.514Z,99661.45
2018-09-21T11:53:16.360Z,99656.30
2018-09-21T11:55:44.259Z,99655.97
2018-09-21T11:58:12.132Z,99637.77
2018-09-21T12:00:41.141Z,99643.86
2018-09-21T12:03:09.125Z,99650.64
2018-09-21T12:05:37.008Z,99673.47
2018-09-21T12:08:04.885Z,99686.29
2018-09-21T12:10:32.775Z,99668.55
2018-09-21T12:13:00.675Z,99676.86
2018-09-21T12:15:28.537Z,99651.71
2018-09-21T12:17:56.430Z,99657.17
2018-09-21T12:20:24.247Z,99629.55
2018-09-21T12:22:55.509Z,99663.92
2018-09-21T12:25:23.427Z,99648.98
2018-09-21T12:27:51.312Z,99640.38
2018-09-21T12:30:19.196Z,99648.98
2018-09-21T12:32:46.988Z,99660.55
2018-09-21T12:35:14.834Z,99664.78
2018-09-21T12:37:42.648Z,99663.09
2018-09-21T12:40:10.528Z,99669.98
2018-09-21T12:42:38.485Z,99670.92
2018-09-21T12:45:06.632Z,99682.48
2018-09-21T12:47:34.547Z,99674.17
2018-09-21T12:50:02.447Z,99671.11
2018-09-21T12:52:30.314Z,99678.05
2018-09-21T12:54:58.160Z,99675.77
2018-09-21T12:57:26.068Z,99670.80
2018-09-21T12:59:53.943Z,99688.20
2018-09-21T13:02:21.836Z,99681.30
2018-09-21T13:04:49.908Z,99689.25
2018-09-21T13:07:17.655Z,99702.20
2018-09-21T13:09:46.075Z,99711.37
2018-09-21T13:12:20.138Z,99726.12
2018-09-21T13:14:48.141Z,99739.23
2018-09-21T13:17:15.936Z,99766.26
2018-09-21T13:19:43.791Z,99827.66
2018-09-21T13:22:17.123Z,99826.81
2018-09-21T13:24:44.972Z,99864.81
2018-09-21T13:27:16.275Z,99862.99
2018-09-21T13:29:47.916Z,99895.52
2018-09-21T13:32:15.767Z,99893.13
2018-09-21T13:34:43.600Z,99901.78
2018-09-21T13:37:17.010Z,99899.48
2018-09-21T13:39:44.874Z,99891.88
2018-09-21T13:42:12.692Z,99896.48
2018-09-21T13:44:40.515Z,99896.70
2018-09-21T13:47:09.191Z,99924.54
2018-09-21T13:49:36.923Z,99919.66
2018-09-21T13:52:04.824Z,99928.69
2018-09-21T13:54:32.693Z,99924.63
2018-09-21T13:57:00.490Z,99914.03
2018-09-21T13:59:28.356Z,99910.92
2018-09-21T14:01:56.200Z,99894.55
2018-09-21T14:04:26.006Z,99914.05
2018-09-21T14:06:53.780Z,99928.92
2018-09-21T14:09:21.588Z,99936.19
2018-09-21T14:11:49.488Z,99928.09
2018-09-21T14:14:17.396Z,99935.65
2018-09-21T14:16:45.208Z,99936.75
2018-09-21T14:19:13.155Z,99960.28
2018-09-21T14:21:41.097Z,99961.86
2018-09-21T14:24:08.912Z,99944.72
2018-09-21T14:26:36.772Z,99943.56
2018-09-21T14:29:04.697Z,99939.26
2018-09-21T14:31:32.446Z,99935.09
2018-09-21T14:34:00.290Z,99934.50
2018-09-21T14:36:28.312Z,99953.64
2018-09-21T14:38:56.096Z,99972.18
2018-09-21T14:41:23.865Z,99968.38
2018-09-21T14:43:51.636Z,99979.48
2018-09-21T14:46:19.481Z,99997.41
2018-09-21T14:48:47.347Z,100005.17
2018-09-21T14:51:15.280Z,100020.88
2018-09-21T14:53:43.215Z,100014.27
2018-09-21T14:56:19.907Z,99990.33
2018-09-21T14:58:51.283Z,99979.31
2018-09-21T15:01:19.301Z,99966.89
2018-09-21T15:03:47.288Z,99973.50
2018-09-21T15:06:15.266Z,99976.55
2018-09-21T15:08:43.095Z,99986.75
2018-09-21T15:11:11.371Z,99998.60
2018-09-21T15:13:39.138Z,100012.66
2018-09-21T15:16:11.669Z,100014.58
2018-09-21T15:18:39.481Z,100035.80
2018-09-21T15:21:07.304Z,100028.94
2018-09-21T15:23:35.136Z,100043.28
2018-09-21T15:26:02.996Z,100058.99
2018-09-21T15:28:30.760Z,100072.75
2018-09-21T15:30:58.656Z,100084.61
2018-09-21T15:33:26.509Z,100106.38
2018-09-21T15:35:54.324Z,100104.70
2018-09-21T15:38:22.115Z,100111.87
2018-09-21T15:40:49.961Z,100104.69
2018-09-21T15:43:17.996Z,100116.25
2018-09-21T15:45:45.736Z,100108.77
2018-09-21T15:48:13.644Z,100104.33
2018-09-21T15:50:41.527Z,100107.34
2018-09-21T15:53:09.352Z,100113.06
2018-09-21T15:55:37.132Z,100113.36
2018-09-21T15:58:05.221Z,100103.45
2018-09-21T16:00:33.166Z,100108.70
2018-09-21T16:03:00.940Z,100115.62
2018-09-21T16:05:28.772Z,100120.56
2018-09-21T16:07:56.540Z,100123.89
2018-09-21T16:10:24.268Z,100129.67
2018-09-21T16:12:52.147Z,100133.84
2018-09-21T16:15:20.056Z,100130.80
2018-09-21T16:17:48.135Z,100142.39
2018-09-21T16:20:16.008Z,100145.98
2018-09-21T16:22:43.808Z,100148.15
2018-09-21T16:25:12.220Z,100155.06
2018-09-21T16:27:40.139Z,100159.45
2018-09-21T16:30:08.892Z,100163.06
2018-09-21T16:32:36.792Z,100159.47
2018-09-21T16:35:05.256Z,100167.73
2018-09-21T16:37:33.076Z,100168.30
2018-09-21T16:40:00.928Z,100171.31
2018-09-21T16:42:28.911Z,100173.25
2018-09-21T16:44:56.741Z,100187.88
2018-09-21T16:47:24.533Z,100194.48
2018-09-21T16:49:52.487Z,100198.64
2018-09-21T16:52:20.371Z,100193.95
2018-09-21T16:54:48.160Z,100210.20
2018-09-21T16:57:16.041Z,100220.70
2018-09-21T16:59:43.819Z,100226.78
2018-09-21T17:02:11.657Z,100222.09
2018-09-21T17:04:39.524Z,100236.41
2018-09-21T17:07:07.371Z,100240.28
2018-09-21T17:09:35.282Z,100248.81
2018-09-21T17:12:03.033Z,100251.88
2018-09-21T17:14:30.885Z,100256.55
2018-09-21T17:16:58.820Z,100252.41
2018-09-21T17:19:26.624Z,100269.22
2018-09-21T17:21:54.473Z,100267.83
2018-09-21T17:24:22.260Z,100268.38
2018-09-21T17:26:50.108Z,100272.26
2018-09-21T17:29:17.827Z,100281.34
2018-09-21T17:31:45.653Z,100277.21
2018-09-21T17:34:13.442Z,100296.49
2018-09-21T17:36:41.340Z,100309.71
2018-09-21T17:39:11.188Z,100316.03
2018-09-21T17:41:39.023Z,100319.06
2018-09-21T17:44:07.109Z,100327.33
2018-09-21T17:46:35.000Z,100337.80
2018-09-21T17:49:02.917Z,100335.30
2018-09-21T17:51:30.756Z,100341.92
2018-09-21T17:53:58.605Z,100348.78
2018-09-21T17:56:26.334Z,100348.78
2018-09-21T17:58:54.153Z,100350.66
2018-09-21T18:01:21.968Z,100362.50
2018-09-21T18:03:49.777Z,100366.36
2018-09-21T18:06:17.573Z,100385.33
2018-09-21T18:08:45.353Z,100374.62
2018-09-21T18:11:14.566Z,100383.13
2018-09-21T18:13:42.349Z,100385.05
2018-09-21T18:16:10.391Z,100392.45
2018-09-21T18:18:38.043Z,100395.76
2018-09-21T18:21:06.096Z,100405.12
2018-09-21T18:23:35.236Z,100401.74
2018-09-21T18:26:03.264Z,100410.28
2018-09-21T18:28:30.943Z,100413.78
2018-09-21T18:30:58.714Z,100419.30
2018-09-21T18:33:26.624Z,100423.14
2018-09-21T18:35:54.532Z,100423.69
2018-09-21T18:38:22.352Z,100434.70
2018-09-21T18:40:50.179Z,100432.41
2018-09-21T18:43:18.036Z,100437.13
2018-09-21T18:45:45.862Z,100435.16
2018-09-21T18:48:13.751Z,100452.45
2018-09-21T18:50:41.547Z,100449.97
2018-09-21T18:53:09.368Z,100457.12
2018-09-21T18:55:37.860Z,100454.59
2018-09-21T18:58:08.743Z,100457.30
2018-09-21T19:00:37.195Z,100458.90
2018-09-21T19:03:05.144Z,100463.87
2018-09-21T19:05:35.759Z,100479.56
2018-09-21T19:08:04.010Z,100479.52
2018-09-21T19:10:31.888Z,100483.64
2018-09-21T19:13:00.857Z,100483.41
2018-09-21T19:15:28.695Z,100494.84
2018-09-21T19:17:56.570Z,100500.44
2018-09-21T19:20:24.867Z,100500.98
2018-09-21T19:22:52.757Z,100501.95
2018-09-21T19:25:22.218Z,100505.86
2018-09-21T19:27:50.290Z,100509.64
2018-09-21T19:30:20.199Z,100517.81
2018-09-21T19:32:48.146Z,100522.94
2018-09-21T19:35:15.964Z,100521.91
2018-09-21T19:37:51.213Z,100525.14
2018-09-21T19:40:21.997Z,100519.75
2018-09-21T19:42:50.154Z,100529.84
2018-09-21T19:45:17.871Z,100526.69
2018-09-21T19:47:45.639Z,100533.29
2018-09-21T19:50:18.324Z,100536.60
2018-09-21T19:52:46.194Z,100546.33
2018-09-21T19:55:14.386Z,100541.08
2018-09-21T19:57:43.672Z,100546.56
2018-09-21T20:00:11.500Z,100550.97
2018-09-21T20:02:39.355Z,100564.26
2018-09-21T20:05:07.437Z,100557.09
2018-09-21T20:07:35.327Z,100553.52
2018-09-21T20:10:03.931Z,100560.97
2018-09-21T20:12:32.691Z,100569.98
2018-09-21T20:15:01.255Z,100571.83
2018-09-21T20:17:33.842Z,100569.86
2018-09-21T20:20:02.026Z,100573.66
2018-09-21T20:22:31.927Z,100583.59
2018-09-21T20:24:59.748Z,100590.22
2018-09-21T20:27:28.041Z,100581.56
2018-09-21T20:30:01.592Z,100590.97
2018-09-21T20:32:35.036Z,100597.20
2018-09-21T20:35:03.070Z,100610.65
2018-09-21T20:37:30.871Z,100609.25
2018-09-21T20:39:58.648Z,100607.33
2018-09-21T20:42:26.712Z,100615.22
2018-09-21T20:44:54.563Z,100608.62
2018-09-21T20:47:22.360Z,100612.48
2018-09-21T20:49:50.231Z,100617.43
2018-09-21T20:52:18.064Z,100626.81
2018-09-21T20:54:45.917Z,100629.44
2018-09-21T20:57:13.746Z,100622.52
2018-09-21T20:59:41.638Z,100624.69
2018-09-21T21:02:09.845Z,100628.41
2018-09-21T21:04:38.171Z,100642.45
2018-09-21T21:07:06.119Z,100648.52
2018-09-21T21:09:34.405Z,100648.94
2018-09-21T21:12:03.445Z,100652.89
2018-09-21T21:14:31.736Z,100657.02
2018-09-21T21:16:59.921Z,100655.70
2018-09-21T21:19:27.744Z,100668.54
2018-09-21T21:21:55.776Z,100676.97
2018-09-21T21:24:24.074Z,100680.26
2018-09-21T21:26:53.977Z,100668.93
2018-09-21T21:29:21.802Z,100675.50
2018-09-21T21:31:50.383Z,100678.92
2018-09-21T21:34:18.681Z,100682.69
2018-09-21T21:36:46.780Z,100682.66
2018-09-21T21:39:15.057Z,100680.61
2018-09-21T21:41:43.241Z,100685.02
2018-09-21T21:44:11.108Z,100682.11
2018-09-21T21:46:38.948Z,100692.13
2018-09-21T21:49:06.741Z,100693.59
2018-09-21T21:51:34.621Z,100692.42
2018-09-21T21:54:02.485Z,100701.73
2018-09-21T21:56:30.359Z,100706.00
2018-09-21T21:58:58.179Z,100705.17
2018-09-21T22:01:31.755Z,100715.64
2018-09-21T22:03:59.531Z,100717.52
2018-09-21T22:06:27.367Z,100718.23
2018-09-21T22:08:55.184Z,100715.50
2018-09-21T22:11:29.144Z,100725.36
2018-09-21T22:14:02.567Z,100726.00
2018-09-21T22:16:30.400Z,100736.52
2018-09-21T22:18:58.256Z,100740.73
2018-09-21T22:21:26.130Z,100734.96
2018-09-21T22:23:53.935Z,100740.45
2018-09-21T22:26:21.799Z,100737.73
2018-09-21T22:28:49.627Z,100741.20
2018-09-21T22:31:17.416Z,100733.72
2018-09-21T22:33:45.175Z,100741.41
2018-09-21T22:36:13.044Z,100746.81
2018-09-21T22:38:40.880Z,100752.97
2018-09-21T22:41:08.712Z,100754.25
2018-09-21T22:43:36.492Z,100754.47
2018-09-21T22:46:04.319Z,100757.17
2018-09-21T22:48:32.213Z,100757.63
2018-09-21T22:50:59.987Z,100761.41
2018-09-21T22:53:27.777Z,100768.27
2018-09-21T22:55:55.710Z,100766.74
2018-09-21T22:58:23.631Z,100772.37
2018-09-21T23:00:51.486Z,100768.41
2018-09-21T23:03:19.307Z,100765.66
2018-09-21T23:05:47.152Z,100767.53
2018-09-21T23:08:14.963Z,100775.11
2018-09-21T23:10:42.765Z,100776.70
2018-09-21T23:13:10.591Z,100784.55
2018-09-21T23:15:38.440Z,100785.92
2018-09-21T23:18:06.494Z,100789.11
2018-09-21T23:20:34.346Z,100797.00
2018-09-21T23:23:02.240Z,100796.95
2018-09-21T23:25:30.073Z,100799.69
2018-09-21T23:27:57.896Z,100800.61
2018-09-21T23:30:25.743Z,100796.41
2018-09-21T23:32:53.584Z,100800.18
2018-09-21T23:35:21.497Z,100802.41
2018-09-21T23:37:49.320Z,100804.32
2018-09-21T23:40:17.200Z,100808.00
2018-09-21T23:42:44.966Z,100813.59
2018-09-21T23:45:12.796Z,100808.36
2018-09-21T23:47:40.856Z,100818.61
2018-09-21T23:50:08.799Z,100813.48
2018-09-21T23:52:36.683Z,100819.39
2018-09-21T23:55:05.103Z,100824.79
2018-09-21T23:57:32.968Z,100824.73
